sensor_id;sensor_type;location;lat;lon;timestamp;pressure;altitude;pressure_sealevel;temperature;humidity
75656;BME280;64252;51.094;13.714;2022-11-04T00:01:53;99310.50;;;9.70;86.36
75656;BME280;64252;51.094;13.714;2022-11-04T00:04:20;99312.13;;;9.72;85.92
75656;BME280;64252;51.094;13.714;2022-11-04T00:06:47;99305.16;;;9.97;84.50
75656;BME280;64252;51.094;13.714;2022-11-04T00:09:21;99303.56;;;9.93;85.11
75656;BME280;64252;51.094;13.714;2022-11-04T00:11:47;99298.38;;;9.88;85.49
75656;BME280;64252;51.094;13.714;2022-11-04T00:14:31;99293.94;;;9.80;85.57
75656;BME280;64252;51.094;13.714;2022-11-04T00:16:57;99299.59;;;9.80;85.51
75656;BME280;64252;51.094;13.714;2022-11-04T00:19:41;99293.09;;;9.93;85.36
75656;BME280;64252;51.094;13.714;2022-11-04T00:22:26;99294.28;;;9.96;85.29
75656;BME280;64252;51.094;13.714;2022-11-04T00:25:11;99283.78;;;10.00;85.45
75656;BME280;64252;51.094;13.714;2022-11-04T00:28:01;99289.06;;;9.91;85.63
75656;BME280;64252;51.094;13.714;2022-11-04T00:30:47;99292.31;;;9.86;85.07
75656;BME280;64252;51.094;13.714;2022-11-04T00:33:12;99284.63;;;9.97;84.77
75656;BME280;64252;51.094;13.714;2022-11-04T00:35:52;99284.63;;;9.90;85.70
75656;BME280;64252;51.094;13.714;2022-11-04T00:38:18;99283.03;;;9.89;85.46
75656;BME280;64252;51.094;13.714;2022-11-04T00:40:44;99277.84;;;9.84;85.62
75656;BME280;64252;51.094;13.714;2022-11-04T00:43:09;99277.38;;;9.96;84.83
75656;BME280;64252;51.094;13.714;2022-11-04T00:45:35;99274.97;;;9.91;85.60
75656;BME280;64252;51.094;13.714;2022-11-04T00:48:00;99281.50;;;9.77;85.62
75656;BME280;64252;51.094;13.714;2022-11-04T00:50:26;99283.16;;;9.67;85.76
75656;BME280;64252;51.094;13.714;2022-11-04T00:52:59;99278.28;;;9.72;86.38
75656;BME280;64252;51.094;13.714;2022-11-04T00:55:25;99279.00;;;9.93;85.89
75656;BME280;64252;51.094;13.714;2022-11-04T00:57:50;99278.09;;;10.07;84.78
75656;BME280;64252;51.094;13.714;2022-11-04T01:00:16;99266.81;;;10.03;84.66
75656;BME280;64252;51.094;13.714;2022-11-04T01:02:42;99268.50;;;9.94;85.05
75656;BME280;64252;51.094;13.714;2022-11-04T01:05:08;99259.66;;;9.92;85.19
75656;BME280;64252;51.094;13.714;2022-11-04T01:07:33;99261.63;;;10.02;85.17
75656;BME280;64252;51.094;13.714;2022-11-04T01:09:59;99271.28;;;10.01;85.24
75656;BME280;64252;51.094;13.714;2022-11-04T01:12:24;99267.63;;;10.04;84.73
75656;BME280;64252;51.094;13.714;2022-11-04T01:14:50;99265.28;;;9.95;85.94
75656;BME280;64252;51.094;13.714;2022-11-04T01:17:15;99259.25;;;9.93;85.40
75656;BME280;64252;51.094;13.714;2022-11-04T01:19:41;99250.72;;;10.04;85.05
75656;BME280;64252;51.094;13.714;2022-11-04T01:22:07;99258.00;;;10.01;85.45
75656;BME280;64252;51.094;13.714;2022-11-04T01:24:32;99257.22;;;9.94;85.30
75656;BME280;64252;51.094;13.714;2022-11-04T01:26:58;99255.56;;;10.00;85.35
75656;BME280;64252;51.094;13.714;2022-11-04T01:29:23;99253.16;;;9.98;85.88
75656;BME280;64252;51.094;13.714;2022-11-04T01:31:49;99248.75;;;9.97;85.19
75656;BME280;64252;51.094;13.714;2022-11-04T01:34:14;99246.69;;;10.05;85.64
75656;BME280;64252;51.094;13.714;2022-11-04T01:36:40;99235.72;;;10.14;84.81
75656;BME280;64252;51.094;13.714;2022-11-04T01:39:05;99236.16;;;10.16;85.41
75656;BME280;64252;51.094;13.714;2022-11-04T01:41:32;99237.34;;;10.19;84.95
75656;BME280;64252;51.094;13.714;2022-11-04T01:49:53;99232.09;;;10.13;85.60
75656;BME280;64252;51.094;13.714;2022-11-04T01:52:33;99235.28;;;10.23;85.47
75656;BME280;64252;51.094;13.714;2022-11-04T01:55:05;99215.97;;;10.21;85.30
75656;BME280;64252;51.094;13.714;2022-11-04T01:57:37;99227.59;;;10.27;84.95
75656;BME280;64252;51.094;13.714;2022-11-04T02:00:05;99233.69;;;10.25;85.43
75656;BME280;64252;51.094;13.714;2022-11-04T02:05:16;99227.03;;;10.49;84.53
75656;BME280;64252;51.094;13.714;2022-11-04T02:07:42;99212.13;;;10.45;84.18
75656;BME280;64252;51.094;13.714;2022-11-04T02:10:08;99216.91;;;10.52;84.54
75656;BME280;64252;51.094;13.714;2022-11-04T02:12:34;99212.56;;;10.44;84.41
75656;BME280;64252;51.094;13.714;2022-11-04T02:15:17;99213.31;;;10.48;84.76
75656;BME280;64252;51.094;13.714;2022-11-04T02:18:04;99208.41;;;10.55;84.23
75656;BME280;64252;51.094;13.714;2022-11-04T02:23:37;99221.38;;;10.49;84.53
75656;BME280;64252;51.094;13.714;2022-11-04T02:29:10;99253.78;;;10.31;84.85
75656;BME280;64252;51.094;13.714;2022-11-04T02:32:11;99257.06;;;10.22;85.79
75656;BME280;64252;51.094;13.714;2022-11-04T02:34:56;99271.59;;;10.17;85.84
75656;BME280;64252;51.094;13.714;2022-11-04T02:48:46;99225.59;;;10.27;84.98
75656;BME280;64252;51.094;13.714;2022-11-04T02:51:34;99229.59;;;10.30;86.25
75656;BME280;64252;51.094;13.714;2022-11-04T02:57:00;99293.22;;;10.38;85.34
75656;BME280;64252;51.094;13.714;2022-11-04T02:59:41;99330.22;;;10.50;84.84
75656;BME280;64252;51.094;13.714;2022-11-04T03:02:16;99306.47;;;10.48;85.54
75656;BME280;64252;51.094;13.714;2022-11-04T03:04:46;99342.75;;;10.46;85.48
75656;BME280;64252;51.094;13.714;2022-11-04T03:07:14;99322.59;;;10.47;84.85
75656;BME280;64252;51.094;13.714;2022-11-04T03:09:45;99349.63;;;10.45;85.18
75656;BME280;64252;51.094;13.714;2022-11-04T03:12:16;99333.47;;;10.45;85.84
75656;BME280;64252;51.094;13.714;2022-11-04T03:14:48;99352.41;;;10.48;85.39
75656;BME280;64252;51.094;13.714;2022-11-04T03:17:25;99367.34;;;10.45;85.11
75656;BME280;64252;51.094;13.714;2022-11-04T03:19:56;99365.34;;;10.42;85.64
75656;BME280;64252;51.094;13.714;2022-11-04T03:22:26;99368.19;;;10.42;85.22
75656;BME280;64252;51.094;13.714;2022-11-04T03:24:53;99335.59;;;10.34;86.13
75656;BME280;64252;51.094;13.714;2022-11-04T03:27:40;99336.06;;;10.26;86.28
75656;BME280;64252;51.094;13.714;2022-11-04T03:35:26;99338.63;;;9.85;88.32
75656;BME280;64252;51.094;13.714;2022-11-04T03:37:52;99326.63;;;9.70;88.62
75656;BME280;64252;51.094;13.714;2022-11-04T03:40:19;99341.16;;;9.61;89.26
75656;BME280;64252;51.094;13.714;2022-11-04T03:42:49;99342.41;;;9.50;89.84
75656;BME280;64252;51.094;13.714;2022-11-04T03:45:16;99338.84;;;9.35;90.70
75656;BME280;64252;51.094;13.714;2022-11-04T03:47:42;99337.25;;;9.31;90.89
75656;BME280;64252;51.094;13.714;2022-11-04T03:50:25;99323.97;;;9.24;91.06
75656;BME280;64252;51.094;13.714;2022-11-04T03:52:52;99330.00;;;9.26;91.42
75656;BME280;64252;51.094;13.714;2022-11-04T03:55:17;99337.25;;;9.20;91.27
75656;BME280;64252;51.094;13.714;2022-11-04T03:58:02;99344.09;;;9.19;91.74
75656;BME280;64252;51.094;13.714;2022-11-04T04:00:35;99346.09;;;9.18;91.57
75656;BME280;64252;51.094;13.714;2022-11-04T04:03:31;99330.81;;;9.16;92.55
75656;BME280;64252;51.094;13.714;2022-11-04T04:06:08;99333.22;;;9.14;92.95
75656;BME280;64252;51.094;13.714;2022-11-04T04:08:46;99329.22;;;9.22;92.30
75656;BME280;64252;51.094;13.714;2022-11-04T04:14:00;99324.34;;;9.40;91.48
75656;BME280;64252;51.094;13.714;2022-11-04T04:16:42;99327.53;;;9.49;91.74
75656;BME280;64252;51.094;13.714;2022-11-04T04:19:13;99323.06;;;9.55;91.26
75656;BME280;64252;51.094;13.714;2022-11-04T04:21:57;99321.03;;;9.59;91.59
75656;BME280;64252;51.094;13.714;2022-11-04T04:24:29;99325.47;;;9.60;91.23
75656;BME280;64252;51.094;13.714;2022-11-04T04:27:15;99334.72;;;9.61;91.57
75656;BME280;64252;51.094;13.714;2022-11-04T04:29:57;99338.34;;;9.61;91.36
75656;BME280;64252;51.094;13.714;2022-11-04T04:32:27;99341.16;;;9.61;91.03
75656;BME280;64252;51.094;13.714;2022-11-04T04:34:53;99345.19;;;9.64;91.01
75656;BME280;64252;51.094;13.714;2022-11-04T04:37:39;99353.22;;;9.65;91.08
75656;BME280;64252;51.094;13.714;2022-11-04T04:40:08;99341.94;;;9.65;91.14
75656;BME280;64252;51.094;13.714;2022-11-04T04:42:54;99353.22;;;9.65;90.79
75656;BME280;64252;51.094;13.714;2022-11-04T04:45:41;99353.63;;;9.67;91.14
75656;BME280;64252;51.094;13.714;2022-11-04T04:48:09;99354.03;;;9.69;91.18
75656;BME280;64252;51.094;13.714;2022-11-04T04:50:40;99360.03;;;9.72;91.29
75656;BME280;64252;51.094;13.714;2022-11-04T04:53:06;99358.81;;;9.76;91.10
75656;BME280;64252;51.094;13.714;2022-11-04T04:55:32;99350.34;;;9.80;90.93
75656;BME280;64252;51.094;13.714;2022-11-04T04:57:58;99358.81;;;9.83;90.45
75656;BME280;64252;51.094;13.714;2022-11-04T05:00:24;99366.84;;;9.85;90.16
75656;BME280;64252;51.094;13.714;2022-11-04T05:02:51;99365.63;;;9.86;90.21
75656;BME280;64252;51.094;13.714;2022-11-04T05:05:17;99350.69;;;9.89;90.55
75656;BME280;64252;51.094;13.714;2022-11-04T05:07:43;99363.59;;;9.90;91.32
75656;BME280;64252;51.094;13.714;2022-11-04T05:10:11;99344.25;;;9.92;91.47
75656;BME280;64252;51.094;13.714;2022-11-04T05:12:38;99364.00;;;9.92;91.33
75656;BME280;64252;51.094;13.714;2022-11-04T05:15:33;99366.00;;;9.95;91.42
75656;BME280;64252;51.094;13.714;2022-11-04T05:18:01;99363.56;;;9.97;92.01
75656;BME280;64252;51.094;13.714;2022-11-04T05:20:27;99356.31;;;9.96;90.75
75656;BME280;64252;51.094;13.714;2022-11-04T05:22:54;99357.88;;;10.04;91.20
75656;BME280;64252;51.094;13.714;2022-11-04T05:25:20;99361.09;;;10.06;90.26
75656;BME280;64252;51.094;13.714;2022-11-04T05:27:45;99366.34;;;10.07;91.14
75656;BME280;64252;51.094;13.714;2022-11-04T05:30:11;99364.31;;;10.08;90.75
75656;BME280;64252;51.094;13.714;2022-11-04T05:32:36;99370.78;;;10.05;91.32
75656;BME280;64252;51.094;13.714;2022-11-04T05:35:02;99377.25;;;10.02;91.61
75656;BME280;64252;51.094;13.714;2022-11-04T05:37:28;99363.16;;;9.98;92.57
75656;BME280;64252;51.094;13.714;2022-11-04T05:39:53;99370.81;;;9.94;92.05
75656;BME280;64252;51.094;13.714;2022-11-04T05:42:19;99374.50;;;9.88;92.92
75656;BME280;64252;51.094;13.714;2022-11-04T05:44:44;99372.09;;;9.83;93.19
75656;BME280;64252;51.094;13.714;2022-11-04T05:47:10;99364.44;;;9.83;93.54
75656;BME280;64252;51.094;13.714;2022-11-04T05:49:35;99364.84;;;9.82;93.85
75656;BME280;64252;51.094;13.714;2022-11-04T05:52:00;99360.44;;;9.77;94.35
75656;BME280;64252;51.094;13.714;2022-11-04T05:54:26;99366.09;;;9.74;94.99
75656;BME280;64252;51.094;13.714;2022-11-04T05:56:52;99352.41;;;9.68;94.79
75656;BME280;64252;51.094;13.714;2022-11-04T05:59:18;99354.44;;;9.64;95.60
75656;BME280;64252;51.094;13.714;2022-11-04T06:01:44;99361.31;;;9.60;95.78
75656;BME280;64252;51.094;13.714;2022-11-04T06:04:15;99358.47;;;9.56;95.85
75656;BME280;64252;51.094;13.714;2022-11-04T06:06:41;99358.09;;;9.54;96.34
75656;BME280;64252;51.094;13.714;2022-11-04T06:09:08;99370.16;;;9.51;96.11
75656;BME280;64252;51.094;13.714;2022-11-04T06:11:34;99377.84;;;9.54;95.93
75656;BME280;64252;51.094;13.714;2022-11-04T06:14:00;99384.66;;;9.57;97.18
75656;BME280;64252;51.094;13.714;2022-11-04T06:16:26;99382.63;;;9.57;97.42
75656;BME280;64252;51.094;13.714;2022-11-04T06:18:52;99402.38;;;9.57;97.43
75656;BME280;64252;51.094;13.714;2022-11-04T06:21:19;99392.72;;;9.55;97.47
75656;BME280;64252;51.094;13.714;2022-11-04T06:23:47;99392.31;;;9.56;97.16
75656;BME280;64252;51.094;13.714;2022-11-04T06:26:13;99390.31;;;9.53;97.05
75656;BME280;64252;51.094;13.714;2022-11-04T06:28:39;99380.66;;;9.54;96.65
75656;BME280;64252;51.094;13.714;2022-11-04T06:31:07;99377.78;;;9.61;96.34
75656;BME280;64252;51.094;13.714;2022-11-04T06:33:33;99373.34;;;9.67;96.79
75656;BME280;64252;51.094;13.714;2022-11-04T06:36:00;99367.75;;;9.64;96.77
75656;BME280;64252;51.094;13.714;2022-11-04T06:38:30;99375.75;;;9.65;96.96
75656;BME280;64252;51.094;13.714;2022-11-04T06:40:57;99381.81;;;9.67;96.64
75656;BME280;64252;51.094;13.714;2022-11-04T06:43:23;99383.38;;;9.76;96.57
75656;BME280;64252;51.094;13.714;2022-11-04T06:45:58;99387.78;;;9.80;95.96
75656;BME280;64252;51.094;13.714;2022-11-04T06:48:26;99376.94;;;9.82;96.23
75656;BME280;64252;51.094;13.714;2022-11-04T06:50:58;99389.38;;;9.85;96.77
75656;BME280;64252;51.094;13.714;2022-11-04T06:53:25;99386.97;;;9.87;96.28
75656;BME280;64252;51.094;13.714;2022-11-04T06:55:51;99380.53;;;9.93;97.02
75656;BME280;64252;51.094;13.714;2022-11-04T06:58:17;99374.03;;;10.00;95.71
75656;BME280;64252;51.094;13.714;2022-11-04T07:00:43;99373.56;;;10.08;95.26
75656;BME280;64252;51.094;13.714;2022-11-04T07:03:10;99372.75;;;10.15;95.42
75656;BME280;64252;51.094;13.714;2022-11-04T07:05:35;99369.91;;;10.22;94.63
75656;BME280;64252;51.094;13.714;2022-11-04T07:08:01;99360.19;;;10.27;95.03
75656;BME280;64252;51.094;13.714;2022-11-04T07:10:26;99367.44;;;10.35;94.44
75656;BME280;64252;51.094;13.714;2022-11-04T07:12:52;99363.75;;;10.41;94.50
75656;BME280;64252;51.094;13.714;2022-11-04T07:15:19;99364.50;;;10.45;94.07
75656;BME280;64252;51.094;13.714;2022-11-04T07:17:44;99355.28;;;10.45;93.41
75656;BME280;64252;51.094;13.714;2022-11-04T07:20:10;99355.25;;;10.48;93.66
75656;BME280;64252;51.094;13.714;2022-11-04T07:22:37;99359.66;;;10.53;93.37
75656;BME280;64252;51.094;13.714;2022-11-04T07:25:04;99364.03;;;10.57;92.93
75656;BME280;64252;51.094;13.714;2022-11-04T07:27:29;99368.41;;;10.66;93.02
75656;BME280;64252;51.094;13.714;2022-11-04T07:29:55;99371.56;;;10.75;93.40
75656;BME280;64252;51.094;13.714;2022-11-04T07:32:20;99370.31;;;10.83;92.57
75656;BME280;64252;51.094;13.714;2022-11-04T07:34:46;99375.91;;;10.90;91.18
75656;BME280;64252;51.094;13.714;2022-11-04T07:37:11;99364.91;;;10.99;91.59
75656;BME280;64252;51.094;13.714;2022-11-04T07:39:37;99374.88;;;11.14;91.52
75656;BME280;64252;51.094;13.714;2022-11-04T07:42:02;99373.53;;;11.29;89.63
75656;BME280;64252;51.094;13.714;2022-11-04T07:44:27;99371.31;;;11.48;88.56
75656;BME280;64252;51.094;13.714;2022-11-04T07:46:53;99381.66;;;11.61;89.17
75656;BME280;64252;51.094;13.714;2022-11-04T07:49:18;99398.41;;;11.86;88.44
75656;BME280;64252;51.094;13.714;2022-11-04T07:51:44;99400.66;;;11.98;87.33
75656;BME280;64252;51.094;13.714;2022-11-04T07:54:09;99400.09;;;12.10;86.41
75656;BME280;64252;51.094;13.714;2022-11-04T07:56:35;99397.94;;;12.21;85.70
75656;BME280;64252;51.094;13.714;2022-11-04T07:59:00;99399.16;;;12.20;85.78
75656;BME280;64252;51.094;13.714;2022-11-04T08:01:25;99405.81;;;12.07;87.13
75656;BME280;64252;51.094;13.714;2022-11-04T08:03:51;99418.44;;;11.99;86.42
75656;BME280;64252;51.094;13.714;2022-11-04T08:06:19;99423.50;;;11.80;88.09
75656;BME280;64252;51.094;13.714;2022-11-04T08:08:44;99424.88;;;11.62;88.50
75656;BME280;64252;51.094;13.714;2022-11-04T08:11:15;99421.63;;;11.63;88.93
75656;BME280;64252;51.094;13.714;2022-11-04T08:13:41;99412.72;;;11.65;88.58
75656;BME280;64252;51.094;13.714;2022-11-04T08:16:09;99404.59;;;11.70;88.24
75656;BME280;64252;51.094;13.714;2022-11-04T08:18:38;99399.31;;;11.76;88.57
75656;BME280;64252;51.094;13.714;2022-11-04T08:21:04;99403.72;;;11.80;88.32
75656;BME280;64252;51.094;13.714;2022-11-04T08:23:31;99407.06;;;11.65;88.82
75656;BME280;64252;51.094;13.714;2022-11-04T08:25:57;99413.13;;;11.67;88.87
75656;BME280;64252;51.094;13.714;2022-11-04T08:28:22;99418.03;;;11.59;89.00
75656;BME280;64252;51.094;13.714;2022-11-04T08:31:16;99423.81;;;11.49;89.25
75656;BME280;64252;51.094;13.714;2022-11-04T08:33:42;99396.41;;;11.42;88.57
75656;BME280;64252;51.094;13.714;2022-11-04T08:36:11;99388.38;;;11.37;89.14
75656;BME280;64252;51.094;13.714;2022-11-04T08:38:37;99375.81;;;11.41;89.25
75656;BME280;64252;51.094;13.714;2022-11-04T08:41:04;99376.88;;;11.55;88.73
75656;BME280;64252;51.094;13.714;2022-11-04T08:43:30;99385.53;;;11.78;88.89
75656;BME280;64252;51.094;13.714;2022-11-04T08:45:56;99384.44;;;12.02;87.43
75656;BME280;64252;51.094;13.714;2022-11-04T08:48:22;99378.88;;;12.25;86.05
75656;BME280;64252;51.094;13.714;2022-11-04T08:50:49;99389.91;;;12.47;82.93
75656;BME280;64252;51.094;13.714;2022-11-04T08:53:15;99399.25;;;12.44;83.01
75656;BME280;64252;51.094;13.714;2022-11-04T08:55:41;99402.56;;;12.39;83.42
75656;BME280;64252;51.094;13.714;2022-11-04T08:58:06;99394.38;;;12.44;83.06
75656;BME280;64252;51.094;13.714;2022-11-04T09:00:32;99383.06;;;12.44;82.71
75656;BME280;64252;51.094;13.714;2022-11-04T09:02:58;99378.69;;;12.40;82.70
75656;BME280;64252;51.094;13.714;2022-11-04T09:05:24;99371.84;;;12.37;82.91
75656;BME280;64252;51.094;13.714;2022-11-04T09:07:50;99363.09;;;12.28;83.98
75656;BME280;64252;51.094;13.714;2022-11-04T09:10:16;99356.00;;;12.13;84.78
75656;BME280;64252;51.094;13.714;2022-11-04T09:12:42;99356.16;;;12.02;84.59
75656;BME280;64252;51.094;13.714;2022-11-04T09:15:08;99374.81;;;11.96;84.70
75656;BME280;64252;51.094;13.714;2022-11-04T09:17:34;99382.59;;;11.88;85.62
75656;BME280;64252;51.094;13.714;2022-11-04T09:19:59;99386.38;;;11.75;85.58
75656;BME280;64252;51.094;13.714;2022-11-04T09:22:25;99378.34;;;11.70;86.83
75656;BME280;64252;51.094;13.714;2022-11-04T09:24:50;99382.47;;;11.62;87.49
75656;BME280;64252;51.094;13.714;2022-11-04T09:27:16;99374.06;;;11.55;87.51
75656;BME280;64252;51.094;13.714;2022-11-04T09:29:41;99378.53;;;11.52;88.20
75656;BME280;64252;51.094;13.714;2022-11-04T09:32:07;99370.88;;;11.49;87.88
75656;BME280;64252;51.094;13.714;2022-11-04T09:34:33;99381.00;;;11.47;88.95
75656;BME280;64252;51.094;13.714;2022-11-04T09:36:59;99385.97;;;11.35;88.20
75656;BME280;64252;51.094;13.714;2022-11-04T09:39:26;99382.81;;;11.26;88.84
75656;BME280;64252;51.094;13.714;2022-11-04T09:45:00;99387.03;;;11.08;90.18
75656;BME280;64252;51.094;13.714;2022-11-04T09:47:25;99392.75;;;11.00;91.55
75656;BME280;64252;51.094;13.714;2022-11-04T09:49:54;99398.44;;;10.97;91.22
75656;BME280;64252;51.094;13.714;2022-11-04T09:52:35;99401.28;;;10.93;91.08
75656;BME280;64252;51.094;13.714;2022-11-04T09:55:06;99409.78;;;10.90;90.76
75656;BME280;64252;51.094;13.714;2022-11-04T09:57:35;99423.50;;;10.88;91.76
75656;BME280;64252;51.094;13.714;2022-11-04T10:00:01;99423.13;;;10.86;91.74
75656;BME280;64252;51.094;13.714;2022-11-04T10:11:24;99442.94;;;10.79;92.10
75656;BME280;64252;51.094;13.714;2022-11-04T10:14:24;99437.28;;;10.79;92.60
75656;BME280;64252;51.094;13.714;2022-11-04T10:25:02;99453.50;;;10.71;93.20
75656;BME280;64252;51.094;13.714;2022-11-04T10:27:33;99455.13;;;10.69;93.60
75656;BME280;64252;51.094;13.714;2022-11-04T10:30:03;99458.34;;;10.67;93.80
75656;BME280;64252;51.094;13.714;2022-11-04T10:32:43;99447.47;;;10.66;93.71
75656;BME280;64252;51.094;13.714;2022-11-04T10:37:37;99456.00;;;10.59;94.40
75656;BME280;64252;51.094;13.714;2022-11-04T10:40:36;99469.69;;;10.56;93.68
75656;BME280;64252;51.094;13.714;2022-11-04T10:43:08;99461.63;;;10.55;93.96
75656;BME280;64252;51.094;13.714;2022-11-04T10:45:45;99465.69;;;10.54;94.73
75656;BME280;64252;51.094;13.714;2022-11-04T10:48:22;99467.31;;;10.51;94.22
75656;BME280;64252;51.094;13.714;2022-11-04T10:50:55;99474.59;;;10.49;92.97
75656;BME280;64252;51.094;13.714;2022-11-04T10:53:31;99468.16;;;10.41;93.82
75656;BME280;64252;51.094;13.714;2022-11-04T10:56:09;99469.00;;;10.38;93.25
75656;BME280;64252;51.094;13.714;2022-11-04T10:58:47;99475.44;;;10.39;94.08
75656;BME280;64252;51.094;13.714;2022-11-04T11:03:47;99479.47;;;10.38;94.24
75656;BME280;64252;51.094;13.714;2022-11-04T11:06:18;99480.31;;;10.35;93.74
75656;BME280;64252;51.094;13.714;2022-11-04T11:08:45;99484.72;;;10.32;94.52
75656;BME280;64252;51.094;13.714;2022-11-04T11:11:12;99485.13;;;10.34;93.95
75656;BME280;64252;51.094;13.714;2022-11-04T11:13:41;99486.75;;;10.35;94.38
75656;BME280;64252;51.094;13.714;2022-11-04T11:16:19;99477.88;;;10.33;93.33
75656;BME280;64252;51.094;13.714;2022-11-04T11:21:47;99477.13;;;10.26;94.83
75656;BME280;64252;51.094;13.714;2022-11-04T11:24:27;99472.72;;;10.21;94.22
75656;BME280;64252;51.094;13.714;2022-11-04T11:27:00;99463.41;;;10.24;94.83
75656;BME280;64252;51.094;13.714;2022-11-04T11:29:31;99469.06;;;10.21;94.10
75656;BME280;64252;51.094;13.714;2022-11-04T11:32:05;99477.13;;;10.15;94.50
75656;BME280;64252;51.094;13.714;2022-11-04T11:34:41;99473.13;;;10.16;95.33
75656;BME280;64252;51.094;13.714;2022-11-04T11:37:30;99475.50;;;10.14;94.60
75656;BME280;64252;51.094;13.714;2022-11-04T11:39:56;99471.06;;;10.13;95.01
75656;BME280;64252;51.094;13.714;2022-11-04T11:42:22;99471.50;;;10.19;96.10
75656;BME280;64252;51.094;13.714;2022-11-04T11:44:53;99469.06;;;10.21;95.33
75656;BME280;64252;51.094;13.714;2022-11-04T11:50:04;99460.94;;;10.33;94.68
75656;BME280;64252;51.094;13.714;2022-11-04T11:52:32;99462.53;;;10.38;95.12
75656;BME280;64252;51.094;13.714;2022-11-04T11:58:13;99461.78;;;10.27;94.06
75656;BME280;64252;51.094;13.714;2022-11-04T12:01:15;99473.88;;;10.27;93.63
75656;BME280;64252;51.094;13.714;2022-11-04T12:03:47;99475.47;;;10.28;93.82
75656;BME280;64252;51.094;13.714;2022-11-04T12:14:37;99474.69;;;10.13;91.24
75656;BME280;64252;51.094;13.714;2022-11-04T12:22:56;99467.53;;;9.91;93.25
75656;BME280;64252;51.094;13.714;2022-11-04T12:25:35;99469.13;;;9.89;94.47
75656;BME280;64252;51.094;13.714;2022-11-04T12:31:11;99467.53;;;9.84;93.56
75656;BME280;64252;51.094;13.714;2022-11-04T12:34:01;99464.31;;;9.86;93.66
75656;BME280;64252;51.094;13.714;2022-11-04T12:36:52;99469.94;;;9.86;93.79
75656;BME280;64252;51.094;13.714;2022-11-04T12:45:01;99459.47;;;9.86;92.34
75656;BME280;64252;51.094;13.714;2022-11-04T12:47:39;99451.03;;;9.86;92.57
75656;BME280;64252;51.094;13.714;2022-11-04T12:58:30;99449.81;;;9.80;92.44
75656;BME280;64252;51.094;13.714;2022-11-04T13:01:05;99451.06;;;9.79;93.62
75656;BME280;64252;51.094;13.714;2022-11-04T13:04:03;99447.03;;;9.73;93.21
75656;BME280;64252;51.094;13.714;2022-11-04T13:06:37;99438.59;;;9.69;93.51
75656;BME280;64252;51.094;13.714;2022-11-04T13:09:14;99438.59;;;9.69;92.64
75656;BME280;64252;51.094;13.714;2022-11-04T13:12:10;99436.97;;;9.68;93.41
75656;BME280;64252;51.094;13.714;2022-11-04T13:14:50;99438.19;;;9.67;94.10
75656;BME280;64252;51.094;13.714;2022-11-04T13:17:21;99441.00;;;9.71;94.12
75656;BME280;64252;51.094;13.714;2022-11-04T13:19:50;99428.13;;;9.74;93.84
75656;BME280;64252;51.094;13.714;2022-11-04T13:22:22;99445.03;;;9.74;94.14
75656;BME280;64252;51.094;13.714;2022-11-04T13:25:13;99442.59;;;9.72;94.28
75656;BME280;64252;51.094;13.714;2022-11-04T13:27:44;99447.44;;;9.72;94.64
75656;BME280;64252;51.094;13.714;2022-11-04T13:30:30;99445.81;;;9.70;94.56
75656;BME280;64252;51.094;13.714;2022-11-04T13:35:58;99457.91;;;9.67;94.64
75656;BME280;64252;51.094;13.714;2022-11-04T13:38:34;99461.16;;;9.69;94.01
75656;BME280;64252;51.094;13.714;2022-11-04T13:41:08;99468.38;;;9.70;94.83
75656;BME280;64252;51.094;13.714;2022-11-04T13:43:46;99467.56;;;9.74;93.00
75656;BME280;64252;51.094;13.714;2022-11-04T13:46:19;99475.63;;;9.72;94.02
75656;BME280;64252;51.094;13.714;2022-11-04T13:49:23;99470.81;;;9.68;93.62
75656;BME280;64252;51.094;13.714;2022-11-04T13:52:10;99474.84;;;9.67;92.67
75656;BME280;64252;51.094;13.714;2022-11-04T13:54:44;99480.47;;;9.67;94.27
75656;BME280;64252;51.094;13.714;2022-11-04T13:57:27;99482.88;;;9.65;94.12
75656;BME280;64252;51.094;13.714;2022-11-04T14:08:15;99486.13;;;9.57;93.77
75656;BME280;64252;51.094;13.714;2022-11-04T14:10:47;99498.59;;;9.56;94.77
75656;BME280;64252;51.094;13.714;2022-11-04T14:16:09;99474.06;;;9.49;95.45
75656;BME280;64252;51.094;13.714;2022-11-04T14:18:49;99483.72;;;9.45;95.47
75656;BME280;64252;51.094;13.714;2022-11-04T14:21:20;99496.59;;;9.42;95.99
75656;BME280;64252;51.094;13.714;2022-11-04T14:23:48;99494.97;;;9.38;96.13
75656;BME280;64252;51.094;13.714;2022-11-04T14:26:25;99505.44;;;9.37;95.49
75656;BME280;64252;51.094;13.714;2022-11-04T14:29:11;99507.06;;;9.38;96.02
75656;BME280;64252;51.094;13.714;2022-11-04T14:31:45;99511.50;;;9.36;96.47
75656;BME280;64252;51.094;13.714;2022-11-04T14:34:33;99510.69;;;9.35;95.97
75656;BME280;64252;51.094;13.714;2022-11-04T14:37:03;99512.72;;;9.31;96.02
75656;BME280;64252;51.094;13.714;2022-11-04T14:39:37;99514.31;;;9.29;95.94
75656;BME280;64252;51.094;13.714;2022-11-04T14:42:04;99521.16;;;9.24;97.10
75656;BME280;64252;51.094;13.714;2022-11-04T14:44:44;99527.97;;;9.23;96.91
75656;BME280;64252;51.094;13.714;2022-11-04T14:47:21;99528.41;;;9.18;95.29
75656;BME280;64252;51.094;13.714;2022-11-04T14:50:01;99535.22;;;9.17;95.99
75656;BME280;64252;51.094;13.714;2022-11-04T14:52:48;99540.44;;;9.15;96.30
75656;BME280;64252;51.094;13.714;2022-11-04T14:55:25;99540.84;;;9.13;95.90
75656;BME280;64252;51.094;13.714;2022-11-04T14:57:53;99548.50;;;9.13;96.46
75656;BME280;64252;51.094;13.714;2022-11-04T15:01:00;99549.72;;;9.08;95.73
75656;BME280;64252;51.094;13.714;2022-11-04T15:03:27;99549.28;;;9.03;95.74
75656;BME280;64252;51.094;13.714;2022-11-04T15:06:01;99555.69;;;9.00;96.07
75656;BME280;64252;51.094;13.714;2022-11-04T15:13:26;99558.50;;;8.89;96.19
75656;BME280;64252;51.094;13.714;2022-11-04T15:15:53;99554.47;;;8.87;96.25
75656;BME280;64252;51.094;13.714;2022-11-04T15:18:24;99568.16;;;8.85;95.69